Terminal Aerodrome Forecast
Issued by NWS

Home | Current Version | Previous Version | Text Only | Print | Product List | Glossary On
Versions: 1 2 3 4 5 6 7 8 9 10 11 12
549
FTUS44 KLZK 071727
TAFBPK
TAF
KBPK 071727Z 0718/0818 26009G18KT P6SM BKN110 OVC250
     FM080000 29007KT P6SM SCT250
     FM080600 30010G18KT P6SM OVC100
     FM081200 30012G22KT P6SM OVC030=

USA.gov is the U.S. government's official web portal to all federal, state and local government web resources and services.